Time;durP1;ratioP1;P1;durP2;ratioP2;P2;SDS_P1;SDS_P2;PMS_P1;PMS_P2;Temp;Humidity;BMP_temperature;BMP_pressure;BME280_temperature;BME280_humidity;BME280_pressure;Samples;Min_cycle;Max_cycle;Signal;HPM_P1;HPM_P2
2022/06/04 00:03:51;;;;;;;2.15;1.23;;;19.70;59.90;;;;;;10415862;28;20530;-56
2022/06/04 00:08:51;;;;;;;3.42;1.58;;;19.70;59.90;;;;;;10414757;28;20036;-57
2022/06/04 00:19:12;;;;;;;1.80;1.23;;;19.70;59.90;;;;;;10416942;28;20120;-57
2022/06/04 00:24:14;;;;;;;1.92;1.00;;;19.70;59.90;;;;;;10413552;28;20045;-56
2022/06/04 00:29:14;;;;;;;1.48;1.20;;;19.70;60.00;;;;;;10413527;28;20033;-57
2022/06/04 00:34:15;;;;;;;1.58;1.25;;;19.70;59.90;;;;;;10413367;28;20046;-57
2022/06/04 00:39:16;;;;;;;2.05;1.08;;;19.70;59.80;;;;;;10413467;28;20029;-56
2022/06/04 00:44:19;;;;;;;1.67;1.13;;;19.70;60.00;;;;;;10413502;28;20044;-57
2022/06/04 00:49:20;;;;;;;2.13;1.08;;;19.70;59.90;;;;;;10414396;28;20037;-57
2022/06/04 00:54:21;;;;;;;2.92;1.55;;;19.70;59.90;;;;;;10413978;28;20041;-56
2022/06/04 00:59:46;;;;;;;1.83;1.20;;;19.70;59.90;;;;;;10412466;28;20036;-56
2022/06/04 01:05:08;;;;;;;2.53;1.40;;;19.70;60.10;;;;;;10412495;28;20033;-57
2022/06/04 01:10:45;;;;;;;2.15;1.20;;;19.70;59.90;;;;;;10413662;28;20040;-57
2022/06/04 01:16:04;;;;;;;1.80;1.55;;;19.60;59.90;;;;;;10412170;28;20048;-57
2022/06/04 01:22:01;;;;;;;2.90;0.98;;;19.70;60.00;;;;;;10414680;28;20091;-57
2022/06/04 01:27:22;;;;;;;2.33;1.63;;;19.60;60.00;;;;;;10395996;28;20036;-57
2022/06/04 01:32:30;;;;;;;1.80;1.30;;;19.60;59.90;;;;;;10411617;28;20163;-56
2022/06/04 01:38:10;;;;;;;1.50;1.20;;;19.70;59.90;;;;;;10412876;28;20393;-57
2022/06/04 01:43:14;;;;;;;1.83;1.50;;;19.60;59.90;;;;;;10412795;28;20056;-57
2022/06/04 01:48:17;;;;;;;1.35;0.98;;;19.60;59.90;;;;;;10411514;28;20351;-56
2022/06/04 01:53:22;;;;;;;1.25;1.10;;;19.70;60.00;;;;;;10412632;28;20038;-57
2022/06/04 01:58:31;;;;;;;1.27;0.98;;;19.60;59.90;;;;;;10419636;28;20033;-57
2022/06/04 02:03:47;;;;;;;2.35;1.40;;;19.60;59.90;;;;;;10419164;28;20108;-56
2022/06/04 02:08:58;;;;;;;2.20;1.55;;;19.60;59.90;;;;;;10419184;28;20068;-56
2022/06/04 02:14:07;;;;;;;1.58;1.08;;;19.60;60.00;;;;;;10412789;28;20436;-56
2022/06/04 02:19:08;;;;;;;2.33;1.40;;;19.60;60.00;;;;;;10420344;28;20691;-57
2022/06/04 02:24:10;;;;;;;1.83;1.20;;;19.60;60.00;;;;;;10418528;28;20120;-57
2022/06/04 02:29:11;;;;;;;1.33;1.05;;;19.60;60.00;;;;;;10418465;28;20397;-57
2022/06/04 02:34:23;;;;;;;1.27;1.10;;;19.60;60.00;;;;;;10417607;28;20049;-57
2022/06/04 02:39:43;;;;;;;1.25;1.13;;;19.60;60.10;;;;;;10419547;28;20490;-57
2022/06/04 02:44:55;;;;;;;2.53;1.30;;;19.60;60.00;;;;;;10417993;28;20599;-57
2022/06/04 02:50:05;;;;;;;2.10;1.10;;;19.60;60.00;;;;;;10417796;28;20029;-57
2022/06/04 02:55:14;;;;;;;2.65;1.52;;;19.60;59.90;;;;;;10417247;28;20120;-57
2022/06/04 03:00:21;;;;;;;;;;;19.60;59.80;;;;;;10417766;28;20029;-57
2022/06/04 03:05:27;;;;;;;1.88;1.23;;;19.60;59.80;;;;;;10416549;28;20300;-57
2022/06/04 03:10:33;;;;;;;2.05;1.60;;;19.50;60.00;;;;;;10416981;28;20029;-57
2022/06/04 03:15:34;;;;;;;2.40;1.17;;;19.50;60.00;;;;;;10406372;28;20116;-56
2022/06/04 03:20:35;;;;;;;3.05;1.58;;;19.50;59.90;;;;;;10418962;28;20151;-57
2022/06/04 03:25:38;;;;;;;1.38;1.10;;;19.50;59.90;;;;;;10416000;28;20052;-57
2022/06/04 03:30:39;;;;;;;2.13;1.38;;;19.50;59.90;;;;;;10415918;28;20136;-57
2022/06/04 03:35:42;;;;;;;2.00;1.30;;;19.50;59.90;;;;;;10416808;28;20112;-57
2022/06/04 03:40:43;;;;;;;1.77;1.17;;;19.50;59.90;;;;;;10415816;28;20437;-56
2022/06/04 03:45:43;;;;;;;1.63;1.10;;;19.50;60.00;;;;;;10416650;28;20098;-57
2022/06/04 03:50:44;;;;;;;2.75;1.27;;;19.50;60.00;;;;;;10416715;28;20072;-56
2022/06/04 03:55:45;;;;;;;1.60;1.20;;;19.50;60.10;;;;;;10415597;28;20468;-57
2022/06/04 04:00:45;;;;;;;1.20;0.95;;;19.50;60.10;;;;;;10415235;28;20163;-57
2022/06/04 04:05:50;;;;;;;2.55;1.40;;;19.50;60.00;;;;;;10414937;28;20033;-57
2022/06/04 04:10:51;;;;;;;1.60;1.33;;;19.50;60.10;;;;;;10412636;28;20029;-57
2022/06/04 04:15:52;;;;;;;2.03;1.10;;;19.50;60.00;;;;;;10412587;28;20692;-57
2022/06/04 04:20:53;;;;;;;1.30;1.20;;;19.50;60.10;;;;;;10415286;28;20027;-56
2022/06/04 04:25:53;;;;;;;1.63;1.02;;;19.50;60.10;;;;;;10414645;28;20108;-56
2022/06/04 04:30:54;;;;;;;2.33;1.65;;;19.50;60.20;;;;;;10414552;28;20541;-57
2022/06/04 04:35:55;;;;;;;1.58;1.35;;;19.50;60.60;;;;;;10414804;28;20063;-56
2022/06/04 04:40:55;;;;;;;1.55;1.27;;;19.50;60.60;;;;;;10405724;28;20034;-57
2022/06/04 04:46:05;;;;;;;2.75;1.77;;;19.50;60.40;;;;;;10402408;28;20117;-57
2022/06/04 04:51:12;;;;;;;2.38;1.27;;;19.50;60.60;;;;;;10412868;28;20032;-57
2022/06/04 04:56:19;;;;;;;4.68;2.08;;;19.50;61.10;;;;;;10412389;28;20034;-55
2022/06/04 05:01:25;;;;;;;5.45;2.67;;;19.50;61.20;;;;;;10415315;28;20444;-55
2022/06/04 05:06:26;;;;;;;2.63;1.80;;;19.70;62.30;;;;;;10413323;28;20363;-57
2022/06/04 05:11:32;;;;;;;4.72;2.20;;;19.70;62.20;;;;;;10409954;28;20030;-55
2022/06/04 05:16:40;;;;;;;3.53;2.70;;;19.70;63.20;;;;;;10405827;28;20470;-58
2022/06/04 05:21:48;;;;;;;8.73;2.58;;;19.80;63.20;;;;;;10413230;28;20090;-57
2022/06/04 05:26:50;;;;;;;9.05;2.80;;;19.70;63.40;;;;;;10426524;28;20032;-56
2022/06/04 05:31:52;;;;;;;12.05;2.70;;;19.80;63.50;;;;;;10412620;28;20046;-56
2022/06/04 05:36:53;;;;;;;14.25;3.30;;;19.70;63.30;;;;;;10412638;28;20033;-57
2022/06/04 05:41:53;;;;;;;13.95;3.25;;;19.70;63.10;;;;;;10393410;28;20040;-57
2022/06/04 05:46:54;;;;;;;11.30;3.55;;;19.70;63.30;;;;;;10411446;28;20116;-56
2022/06/04 05:51:55;;;;;;;19.20;3.70;;;19.70;63.60;;;;;;10411839;28;20432;-58
2022/06/04 05:56:56;;;;;;;16.67;3.60;;;19.70;63.60;;;;;;10406042;28;20381;-56
2022/06/04 06:01:56;;;;;;;9.85;3.05;;;19.70;64.00;;;;;;10411099;28;20030;-55
2022/06/04 06:06:59;;;;;;;7.25;2.40;;;19.70;63.40;;;;;;10412140;28;20543;-55
2022/06/04 06:12:00;;;;;;;12.45;2.65;;;19.70;63.60;;;;;;10411770;28;20033;-56
2022/06/04 06:17:00;;;;;;;17.70;4.18;;;19.70;63.90;;;;;;10410534;28;20241;-56
2022/06/04 06:22:02;;;;;;;11.30;3.30;;;19.70;63.90;;;;;;10411933;28;20108;-55
2022/06/04 06:27:02;;;;;;;11.32;3.42;;;19.70;63.80;;;;;;10410214;28;20416;-57
2022/06/04 06:32:04;;;;;;;21.70;3.83;;;19.70;64.10;;;;;;10408488;28;20042;-56
2022/06/04 06:37:05;;;;;;;26.65;3.92;;;19.70;63.60;;;;;;10409687;28;20034;-57
2022/06/04 06:42:05;;;;;;;13.38;3.72;;;19.70;63.70;;;;;;10414320;28;20045;-56
2022/06/04 06:47:07;;;;;;;23.63;3.90;;;19.70;63.80;;;;;;10416066;28;20044;-56
2022/06/04 06:52:09;;;;;;;13.35;3.88;;;19.70;63.80;;;;;;10416218;28;20060;-57
2022/06/04 06:57:11;;;;;;;17.27;4.78;;;19.70;63.70;;;;;;10389088;28;20557;-57
2022/06/04 07:02:12;;;;;;;12.25;2.95;;;19.70;63.30;;;;;;10416725;28;20167;-57
2022/06/04 07:07:13;;;;;;;7.32;3.33;;;19.60;63.00;;;;;;10415274;28;20099;-57
2022/06/04 07:12:14;;;;;;;6.75;2.78;;;19.60;62.90;;;;;;10415729;28;20592;-57
2022/06/04 07:17:14;;;;;;;5.05;2.90;;;19.60;62.80;;;;;;10413623;28;20144;-57
2022/06/04 07:22:15;;;;;;;7.75;2.92;;;19.60;62.60;;;;;;10386766;28;20040;-57
2022/06/04 07:27:16;;;;;;;8.35;3.33;;;19.60;62.60;;;;;;10413930;28;20098;-57
2022/06/04 07:32:17;;;;;;;9.77;2.72;;;19.60;62.60;;;;;;10416873;28;20041;-57
2022/06/04 07:37:18;;;;;;;6.57;2.85;;;19.60;62.50;;;;;;10416379;28;20108;-57
2022/06/04 07:42:19;;;;;;;6.93;2.78;;;19.60;63.10;;;;;;10432473;28;20512;-57
2022/06/04 07:47:19;;;;;;;8.90;3.20;;;19.60;62.50;;;;;;10416719;28;20029;-57
2022/06/04 07:52:20;;;;;;;5.95;3.10;;;19.60;62.50;;;;;;10398915;28;20032;-58
2022/06/04 07:57:21;;;;;;;5.50;2.33;;;19.60;62.40;;;;;;10416106;28;20120;-58
2022/06/04 08:02:24;;;;;;;7.80;3.30;;;19.60;62.40;;;;;;10415977;28;20502;-57
2022/06/04 08:07:25;;;;;;;8.82;3.83;;;19.50;62.30;;;;;;10414298;28;20378;-58
2022/06/04 08:12:33;;;;;;;9.20;3.70;;;19.60;62.50;;;;;;10413818;28;20044;-57
2022/06/04 08:17:34;;;;;;;12.43;3.28;;;19.50;62.80;;;;;;10416044;28;20032;-57
2022/06/04 08:22:35;;;;;;;7.28;3.08;;;19.50;62.60;;;;;;10404207;28;20377;-58
2022/06/04 08:27:36;;;;;;;6.60;3.00;;;19.50;63.20;;;;;;10402958;28;20025;-56
2022/06/04 08:32:36;;;;;;;5.75;2.97;;;19.50;63.30;;;;;;10410954;28;20073;-56
2022/06/04 08:37:37;;;;;;;7.38;3.53;;;19.50;63.20;;;;;;10414616;28;20039;-57
2022/06/04 08:43:01;;;;;;;6.72;3.78;;;19.50;63.20;;;;;;10414330;28;20037;-56
2022/06/04 08:48:02;;;;;;;8.15;3.00;;;19.60;62.60;;;;;;10397546;28;20139;-57
2022/06/04 08:53:04;;;;;;;8.75;4.13;;;19.60;62.30;;;;;;10399364;28;20056;-56
2022/06/04 08:58:40;;;;;;;10.00;4.57;;;19.50;61.40;;;;;;10403426;28;20612;-57
2022/06/04 09:04:06;;;;;;;10.07;4.45;;;19.50;60.80;;;;;;10396692;28;20512;-58
2022/06/04 09:09:27;;;;;;;8.25;4.53;;;19.60;60.70;;;;;;10389611;28;20034;-58
2022/06/04 09:15:04;;;;;;;6.93;4.30;;;19.60;60.50;;;;;;10409858;28;20575;-56
2022/06/04 09:20:20;;;;;;;10.93;5.45;;;19.60;60.50;;;;;;10412182;28;20052;-57
2022/06/04 09:25:25;;;;;;;13.90;4.50;;;19.60;60.40;;;;;;10405787;28;20030;-59
2022/06/04 09:30:55;;;;;;;16.77;5.15;;;19.60;60.50;;;;;;10387519;28;20064;-57
2022/06/04 09:35:57;;;;;;;9.32;5.10;;;19.60;60.40;;;;;;10383577;28;20113;-59
2022/06/04 09:41:18;;;;;;;11.63;5.15;;;19.60;60.40;;;;;;10394728;28;20018;-58
2022/06/04 09:46:25;;;;;;;16.25;5.72;;;19.60;60.40;;;;;;10381220;28;20037;-58
2022/06/04 09:51:42;;;;;;;10.25;4.60;;;19.60;60.40;;;;;;10390152;28;20382;-57
2022/06/04 09:56:49;;;;;;;12.23;4.28;;;19.60;60.40;;;;;;10377804;28;20105;-57
2022/06/04 10:02:11;;;;;;;17.92;5.45;;;19.60;60.90;;;;;;10402682;28;20057;-56
2022/06/04 10:07:17;;;;;;;10.95;4.25;;;19.70;60.20;;;;;;10411693;28;20040;-57
2022/06/04 10:12:21;;;;;;;12.32;4.95;;;19.70;60.20;;;;;;10409959;28;20104;-57
2022/06/04 10:17:37;;;;;;;10.85;4.47;;;19.70;60.20;;;;;;10415276;28;20025;-56
2022/06/04 10:22:49;;;;;;;15.65;4.85;;;19.70;60.30;;;;;;10414997;28;20124;-57
2022/06/04 10:27:50;;;;;;;16.20;5.75;;;19.80;60.50;;;;;;10428577;28;20108;-57
2022/06/04 10:33:20;;;;;;;12.48;4.72;;;19.80;61.70;;;;;;10419020;28;20049;-55
2022/06/04 10:39:13;;;;;;;13.70;4.97;;;19.90;61.60;;;;;;10417836;28;20033;-56
2022/06/04 10:44:51;;;;;;;16.70;4.65;;;19.90;61.00;;;;;;10417168;28;20025;-57
2022/06/04 10:50:16;;;;;;;7.93;4.40;;;19.90;61.00;;;;;;10415055;28;20029;-57
2022/06/04 10:55:29;;;;;;;13.30;4.22;;;19.90;60.90;;;;;;10410388;28;20098;-57
2022/06/04 11:00:47;;;;;;;8.07;4.55;;;19.90;60.60;;;;;;10415567;28;20474;-57
2022/06/04 11:06:21;;;;;;;13.90;7.45;;;19.80;60.60;;;;;;10398551;28;20729;-58
2022/06/04 11:11:45;;;;;;;7.80;4.65;;;19.80;60.90;;;;;;10415607;28;20045;-58
2022/06/04 11:17:00;;;;;;;9.88;5.18;;;19.80;60.70;;;;;;10415537;28;20029;-59
2022/06/04 11:22:28;;;;;;;10.00;4.20;;;19.90;60.60;;;;;;10417993;28;20121;-59
2022/06/04 11:27:43;;;;;;;13.18;4.65;;;19.90;60.40;;;;;;10396243;28;20495;-59
2022/06/04 11:33:02;;;;;;;8.00;3.88;;;19.90;60.30;;;;;;10415354;28;20054;-57
2022/06/04 11:38:44;;;;;;;11.32;3.78;;;19.90;60.40;;;;;;10414405;28;20060;-57
2022/06/04 11:44:35;;;;;;;8.80;3.55;;;20.00;60.40;;;;;;10416504;28;20029;-58
2022/06/04 11:50:04;;;;;;;9.38;4.53;;;20.00;60.30;;;;;;10405791;28;20073;-58
2022/06/04 11:55:26;;;;;;;7.55;4.22;;;20.00;60.50;;;;;;10414334;28;20038;-57
2022/06/04 12:00:38;;;;;;;10.18;4.05;;;20.10;60.50;;;;;;10414166;28;20026;-57
2022/06/04 12:06:07;;;;;;;5.22;3.10;;;20.00;60.50;;;;;;10414438;28;20467;-57
2022/06/04 12:11:34;;;;;;;6.93;3.88;;;20.10;60.50;;;;;;10414427;28;20079;-57
2022/06/04 12:16:45;;;;;;;10.50;3.90;;;20.00;60.50;;;;;;10406621;28;20083;-57
2022/06/04 12:27:25;;;;;;;15.48;4.25;;;20.10;60.50;;;;;;10414897;28;20049;-57
2022/06/04 12:32:35;;;;;;;6.20;3.47;;;20.10;60.50;;;;;;10412976;28;20087;-57
2022/06/04 12:37:43;;;;;;;9.57;3.90;;;20.20;60.50;;;;;;10410665;28;20025;-57
2022/06/04 12:43:06;;;;;;;6.78;3.40;;;20.20;60.50;;;;;;10408417;28;20084;-57
2022/06/04 12:48:44;;;;;;;6.05;4.20;;;20.20;60.60;;;;;;10410719;28;20052;-57
2022/06/04 12:54:00;;;;;;;6.90;4.05;;;20.20;60.60;;;;;;10412854;28;20375;-57
2022/06/04 12:59:05;;;;;;;4.70;3.75;;;20.30;60.70;;;;;;10404237;28;20040;-57
2022/06/04 13:04:13;;;;;;;9.93;3.88;;;20.30;60.70;;;;;;10412293;28;20508;-56
2022/06/04 13:09:38;;;;;;;6.50;3.80;;;20.30;60.90;;;;;;10413306;28;20032;-57
2022/06/04 13:14:48;;;;;;;7.25;3.83;;;20.30;61.00;;;;;;10411616;28;20078;-58
2022/06/04 13:20:30;;;;;;;7.93;3.47;;;20.30;61.10;;;;;;10413245;28;20030;-57
2022/06/04 13:25:38;;;;;;;4.47;3.63;;;20.40;61.20;;;;;;10423603;28;20477;-57
2022/06/04 13:30:38;;;;;;;5.43;3.33;;;20.30;61.20;;;;;;10410926;28;20083;-58
2022/06/04 13:35:49;;;;;;;6.95;4.15;;;20.40;61.30;;;;;;10410785;28;20513;-59
2022/06/04 13:40:59;;;;;;;4.80;3.30;;;20.40;61.40;;;;;;10401378;28;20466;-58
2022/06/04 13:46:17;;;;;;;6.63;3.45;;;20.40;61.30;;;;;;10404828;28;20041;-58
2022/06/04 13:51:24;;;;;;;6.50;4.15;;;20.40;61.40;;;;;;10414793;28;20030;-59
2022/06/04 13:56:40;;;;;;;5.60;3.78;;;20.40;61.30;;;;;;10402795;28;20021;-58
2022/06/04 14:01:41;;;;;;;8.73;4.00;;;20.30;61.10;;;;;;10415163;28;20079;-59
2022/06/04 14:06:43;;;;;;;6.38;4.05;;;20.30;61.10;;;;;;10419265;28;20401;-58
2022/06/04 14:12:20;;;;;;;5.85;4.13;;;20.30;61.00;;;;;;10408923;28;20029;-58
2022/06/04 14:17:54;;;;;;;4.30;3.63;;;20.30;61.00;;;;;;10419058;28;20049;-59
2022/06/04 14:23:22;;;;;;;6.22;4.47;;;20.30;61.00;;;;;;10416425;28;20033;-58
2022/06/04 14:28:23;;;;;;;5.13;3.88;;;20.30;60.40;;;;;;10418091;28;20033;-60
2022/06/04 14:33:25;;;;;;;6.13;3.53;;;20.30;60.90;;;;;;10418906;28;20478;-57
2022/06/04 14:38:27;;;;;;;6.25;3.88;;;20.30;60.90;;;;;;10417800;28;20433;-59
2022/06/04 14:43:53;;;;;;;7.38;3.38;;;20.30;60.80;;;;;;10417346;28;20045;-59
2022/06/04 14:49:34;;;;;;;7.03;3.58;;;20.30;60.80;;;;;;10417677;28;20112;-59
2022/06/04 14:54:36;;;;;;;9.32;3.70;;;20.30;60.80;;;;;;10417666;28;20052;-59
2022/06/04 15:00:01;;;;;;;19.83;5.00;;;20.30;60.20;;;;;;10415861;28;20033;-58
2022/06/04 15:05:25;;;;;;;7.82;4.10;;;20.30;58.60;;;;;;10416307;28;20041;-58
2022/06/04 15:11:07;;;;;;;35.50;6.70;;;20.30;58.80;;;;;;10411681;28;20037;-59
2022/06/04 15:16:22;;;;;;;8.77;5.07;;;20.30;59.50;;;;;;10404808;28;20065;-59
2022/06/04 15:21:46;;;;;;;11.40;5.18;;;20.40;59.30;;;;;;10416149;28;20443;-57
2022/06/04 15:27:07;;;;;;;12.07;5.50;;;20.50;59.50;;;;;;10416864;28;20040;-57
2022/06/04 15:37:41;;;;;;;10.70;6.15;;;20.60;59.60;;;;;;10417454;28;20041;-57
2022/06/04 15:43:07;;;;;;;13.75;5.25;;;20.70;60.30;;;;;;10415691;28;20065;-57
2022/06/04 15:48:12;;;;;;;12.88;5.45;;;20.70;59.10;;;;;;10416227;28;20079;-58
2022/06/04 15:58:36;;;;;;;;;;;20.90;58.90;;;;;;10409145;28;20067;-57
2022/06/04 16:04:10;;;;;;;10.50;6.22;;;20.90;57.80;;;;;;10413263;28;19970;-57
2022/06/04 16:09:17;;;;;;;9.70;5.78;;;20.90;57.90;;;;;;10409733;28;20041;-57
2022/06/04 16:14:50;;;;;;;7.35;5.65;;;20.80;57.80;;;;;;10401137;28;20033;-57
2022/06/04 16:20:34;;;;;;;8.40;5.05;;;20.80;57.80;;;;;;10416828;28;20397;-57
2022/06/04 16:26:05;;;;;;;6.43;5.57;;;20.70;57.80;;;;;;10400872;28;20418;-57
2022/06/04 16:31:06;;;;;;;9.90;5.78;;;20.80;57.70;;;;;;10414489;28;20457;-57
2022/06/04 16:36:07;;;;;;;7.38;5.30;;;20.70;57.90;;;;;;10413255;28;20041;-57
2022/06/04 16:46:36;;;;;;;6.70;5.13;;;20.70;58.20;;;;;;10413819;28;20434;-57
2022/06/04 16:51:37;;;;;;;5.85;4.50;;;20.80;57.80;;;;;;10412595;28;20037;-57
2022/06/04 16:56:38;;;;;;;5.63;5.03;;;20.80;57.80;;;;;;10412798;28;20029;-58
2022/06/04 17:01:41;;;;;;;6.22;4.65;;;20.80;57.70;;;;;;10413935;28;20115;-58
2022/06/04 17:06:51;;;;;;;6.80;4.18;;;20.80;57.50;;;;;;10412180;28;20389;-59
2022/06/04 17:12:10;;;;;;;7.60;4.57;;;20.80;57.80;;;;;;10404516;28;20041;-57
2022/06/04 17:18:16;;;;;;;8.23;5.07;;;20.80;58.10;;;;;;10409794;28;20029;-58
2022/06/04 17:23:26;;;;;;;11.63;5.78;;;20.80;57.90;;;;;;10393746;28;20045;-58
2022/06/04 17:29:01;;;;;;;6.53;5.47;;;20.80;57.90;;;;;;10409281;28;20037;-58
2022/06/04 17:34:26;;;;;;;6.18;4.63;;;20.80;58.30;;;;;;10411539;28;20046;-57
2022/06/04 17:39:52;;;;;;;10.52;4.72;;;20.80;58.60;;;;;;10410706;28;20056;-57
2022/06/04 17:44:52;;;;;;;5.80;4.47;;;20.80;59.10;;;;;;10408854;28;20036;-57
2022/06/04 17:49:53;;;;;;;5.28;4.72;;;20.80;59.10;;;;;;10411231;28;20116;-56
2022/06/04 17:54:54;;;;;;;6.20;4.65;;;20.80;58.80;;;;;;10410295;28;20087;-57
2022/06/04 17:59:55;;;;;;;6.55;4.88;;;20.80;58.30;;;;;;10412634;28;20040;-57
2022/06/04 18:04:55;;;;;;;8.15;4.75;;;20.80;58.20;;;;;;10412165;28;20038;-56
2022/06/04 18:09:56;;;;;;;6.93;4.25;;;20.80;58.00;;;;;;10412442;28;20122;-57
2022/06/04 18:14:56;;;;;;;7.05;5.05;;;20.80;58.10;;;;;;10412565;28;20037;-57
2022/06/04 18:19:57;;;;;;;5.97;4.13;;;20.80;58.10;;;;;;10418290;28;20113;-56
2022/06/04 18:25:00;;;;;;;6.88;4.32;;;20.80;58.60;;;;;;10410707;28;20421;-56
2022/06/04 18:30:04;;;;;;;7.30;4.63;;;20.80;58.50;;;;;;10407862;28;20037;-56
2022/06/04 18:35:05;;;;;;;5.43;4.35;;;20.80;58.30;;;;;;10412748;28;20045;-56
2022/06/04 18:40:07;;;;;;;6.15;4.50;;;20.80;58.40;;;;;;10418481;28;20035;-56
2022/06/04 18:55:57;;;;;;;10.55;5.78;;;20.80;60.30;;;;;;10399143;28;20492;-56
2022/06/04 19:00:58;;;;;;;8.55;5.13;;;20.80;58.80;;;;;;10408920;28;20477;-57
2022/06/04 19:05:59;;;;;;;9.27;4.72;;;20.70;58.90;;;;;;10415089;28;20160;-57
2022/06/04 19:16:24;;;;;;;4.70;3.95;;;20.70;58.90;;;;;;10415228;28;20038;-56
2022/06/04 19:26:48;;;;;;;7.72;4.28;;;20.70;58.80;;;;;;10415888;28;20072;-57
2022/06/04 19:31:49;;;;;;;6.68;4.25;;;20.70;58.90;;;;;;10415675;28;20092;-56
2022/06/04 19:36:50;;;;;;;7.13;4.70;;;20.70;59.00;;;;;;10416066;28;20036;-57
2022/06/04 19:41:51;;;;;;;4.63;3.70;;;20.70;59.00;;;;;;10408114;28;20490;-56
2022/06/04 19:46:56;;;;;;;4.60;3.85;;;20.70;59.30;;;;;;10413297;28;20060;-57
2022/06/04 19:52:00;;;;;;;6.30;3.80;;;20.70;59.30;;;;;;10414225;28;20017;-56
2022/06/04 19:57:01;;;;;;;4.20;3.55;;;20.70;59.40;;;;;;10415382;28;20369;-56
2022/06/04 20:02:04;;;;;;;5.32;3.50;;;20.70;59.50;;;;;;10422183;28;20091;-56
2022/06/04 20:07:09;;;;;;;4.75;3.42;;;20.70;59.60;;;;;;10414817;28;20442;-57
2022/06/04 20:12:13;;;;;;;4.97;3.42;;;20.70;59.60;;;;;;10415685;28;20037;-57
2022/06/04 20:17:16;;;;;;;5.38;3.47;;;20.70;59.60;;;;;;10415330;28;20108;-57
2022/06/04 20:22:17;;;;;;;4.60;3.50;;;20.70;59.50;;;;;;10415213;28;20037;-56
2022/06/04 20:27:18;;;;;;;4.50;3.67;;;20.70;59.60;;;;;;10387960;28;20041;-57
2022/06/04 20:32:19;;;;;;;6.07;4.05;;;20.70;59.70;;;;;;10415091;28;20486;-57
2022/06/04 20:37:20;;;;;;;4.00;3.05;;;20.70;59.60;;;;;;10414732;28;20493;-57
2022/06/04 20:42:22;;;;;;;4.90;3.58;;;20.70;59.70;;;;;;10414801;28;20466;-57
2022/06/04 20:47:22;;;;;;;4.97;3.53;;;20.70;59.70;;;;;;10414634;28;20124;-57
2022/06/04 20:52:23;;;;;;;4.47;3.42;;;20.70;59.70;;;;;;10407341;28;20040;-57
2022/06/04 20:57:24;;;;;;;4.50;3.67;;;20.70;59.70;;;;;;10411658;28;20453;-56
2022/06/04 21:02:25;;;;;;;6.43;3.58;;;20.70;59.70;;;;;;10421750;28;20052;-56
2022/06/04 21:07:27;;;;;;;5.38;4.15;;;20.70;59.70;;;;;;10412831;28;20116;-57
2022/06/04 21:12:28;;;;;;;4.78;4.00;;;20.70;59.70;;;;;;10413517;28;20067;-57
2022/06/04 21:17:29;;;;;;;4.45;3.72;;;20.70;59.70;;;;;;10413282;28;20033;-56
2022/06/04 21:22:29;;;;;;;4.85;3.95;;;20.70;59.70;;;;;;10412042;28;20389;-56
2022/06/04 21:27:30;;;;;;;4.45;3.60;;;20.70;59.70;;;;;;10413150;28;20124;-56
2022/06/04 21:32:32;;;;;;;7.20;4.15;;;20.70;59.70;;;;;;10413295;28;20049;-56
2022/06/04 21:37:42;;;;;;;5.70;3.70;;;20.70;59.70;;;;;;10412939;28;20509;-57
2022/06/04 21:42:46;;;;;;;4.65;3.83;;;20.70;60.30;;;;;;10413062;28;20098;-56
2022/06/04 21:47:50;;;;;;;5.25;3.83;;;20.70;59.70;;;;;;10412966;28;20105;-57
2022/06/04 21:52:51;;;;;;;9.00;4.07;;;20.70;59.70;;;;;;10402635;28;20482;-56
2022/06/04 21:57:52;;;;;;;4.30;3.20;;;20.70;59.70;;;;;;10412863;28;20026;-57
2022/06/04 22:02:54;;;;;;;4.22;3.75;;;20.70;59.70;;;;;;10424148;28;20083;-57
2022/06/04 22:07:55;;;;;;;3.95;3.10;;;20.70;59.80;;;;;;10412276;28;20037;-57
2022/06/04 22:12:56;;;;;;;3.63;3.15;;;20.70;59.70;;;;;;10420002;28;20038;-57
2022/06/04 22:17:57;;;;;;;5.38;3.97;;;20.70;59.90;;;;;;10420334;28;20034;-56
2022/06/04 22:22:58;;;;;;;3.60;3.03;;;20.70;59.90;;;;;;10420338;28;20025;-56
2022/06/04 22:27:59;;;;;;;4.45;3.40;;;20.70;59.90;;;;;;10420178;28;20120;-56
2022/06/04 22:32:59;;;;;;;5.18;3.30;;;20.70;59.90;;;;;;10419732;28;20166;-57
2022/06/04 22:38:00;;;;;;;4.20;3.50;;;20.70;60.00;;;;;;10419528;28;20101;-57
2022/06/04 22:43:01;;;;;;;4.75;3.28;;;20.70;59.90;;;;;;10419454;28;20638;-56
2022/06/04 22:48:03;;;;;;;4.20;2.80;;;20.70;59.90;;;;;;10419553;28;20105;-57
2022/06/04 22:53:05;;;;;;;3.08;2.60;;;20.70;60.00;;;;;;10407017;28;20037;-57
2022/06/04 22:58:06;;;;;;;4.05;3.08;;;20.60;60.00;;;;;;10418199;28;20040;-57
2022/06/04 23:03:08;;;;;;;3.83;3.00;;;20.70;60.00;;;;;;10430178;28;20120;-56
2022/06/04 23:08:09;;;;;;;3.70;3.10;;;20.60;60.00;;;;;;10418540;28;20775;-56
2022/06/04 23:23:49;;;;;;;3.63;2.90;;;20.60;59.90;;;;;;10416984;28;20361;-57
2022/06/04 23:28:52;;;;;;;4.38;3.20;;;20.70;60.10;;;;;;10417568;28;20029;-57
2022/06/04 23:33:53;;;;;;;4.20;2.83;;;20.60;60.00;;;;;;10416621;28;20049;-56
2022/06/04 23:38:53;;;;;;;3.17;2.50;;;20.60;60.10;;;;;;10432419;28;20028;-57
2022/06/04 23:43:54;;;;;;;3.58;2.67;;;20.60;60.00;;;;;;10416743;28;20049;-56
2022/06/04 23:48:55;;;;;;;5.85;2.90;;;20.60;60.10;;;;;;10415642;28;20627;-56
2022/06/04 23:53:56;;;;;;;3.58;2.83;;;20.60;60.10;;;;;;10402856;28;20030;-57
2022/06/04 23:58:57;;;;;;;9.85;3.10;;;20.60;60.10;;;;;;10422850;28;20519;-56
